sensor_id;sensor_type;location;lat;lon;timestamp;pressure;altitude;pressure_sealevel;temperature;humidity
71239;BME280;61342;51.442;7.370;2022-12-29T00:00:49;98776.03;;;10.99;92.46
71239;BME280;61342;51.442;7.370;2022-12-29T00:01:49;98760.88;;;10.99;92.27
71239;BME280;61342;51.442;7.370;2022-12-29T00:02:50;98773.16;;;10.99;92.39
71239;BME280;61342;51.442;7.370;2022-12-29T00:03:50;98777.00;;;11.02;92.46
71239;BME280;61342;51.442;7.370;2022-12-29T00:04:51;98768.38;;;11.02;92.35
71239;BME280;61342;51.442;7.370;2022-12-29T00:05:55;98766.25;;;11.02;92.47
71239;BME280;61342;51.442;7.370;2022-12-29T00:06:56;98760.50;;;11.02;92.03
71239;BME280;61342;51.442;7.370;2022-12-29T00:07:56;98766.84;;;11.01;92.44
71239;BME280;61342;51.442;7.370;2022-12-29T00:08:57;98770.69;;;11.03;92.66
71239;BME280;61342;51.442;7.370;2022-12-29T00:09:57;98766.47;;;11.04;92.38
71239;BME280;61342;51.442;7.370;2022-12-29T00:10:57;98774.72;;;11.08;92.28
71239;BME280;61342;51.442;7.370;2022-12-29T00:11:58;98768.97;;;11.08;92.45
71239;BME280;61342;51.442;7.370;2022-12-29T00:12:58;98771.25;;;11.09;92.19
71239;BME280;61342;51.442;7.370;2022-12-29T00:14:18;98758.25;;;11.08;92.20
71239;BME280;61342;51.442;7.370;2022-12-29T00:15:37;98760.56;;;11.10;92.08
71239;BME280;61342;51.442;7.370;2022-12-29T00:16:39;98747.69;;;11.11;91.96
71239;BME280;61342;51.442;7.370;2022-12-29T00:17:40;98746.16;;;11.10;91.97
71239;BME280;61342;51.442;7.370;2022-12-29T00:18:40;98733.69;;;11.07;91.89
71239;BME280;61342;51.442;7.370;2022-12-29T00:19:41;98751.75;;;11.15;92.09
71239;BME280;61342;51.442;7.370;2022-12-29T00:21:15;98738.50;;;11.12;91.87
71239;BME280;61342;51.442;7.370;2022-12-29T00:22:34;98738.69;;;11.14;91.90
71239;BME280;61342;51.442;7.370;2022-12-29T00:23:53;98735.81;;;11.14;91.75
71239;BME280;61342;51.442;7.370;2022-12-29T00:25:12;98741.22;;;11.18;91.66
71239;BME280;61342;51.442;7.370;2022-12-29T00:26:32;98725.28;;;11.17;91.60
71239;BME280;61342;51.442;7.370;2022-12-29T00:27:51;98738.34;;;11.18;91.69
71239;BME280;61342;51.442;7.370;2022-12-29T00:29:10;98743.28;;;11.17;91.55
71239;BME280;61342;51.442;7.370;2022-12-29T00:30:29;98735.47;;;11.18;91.52
71239;BME280;61342;51.442;7.370;2022-12-29T00:31:48;98728.34;;;11.19;91.61
71239;BME280;61342;51.442;7.370;2022-12-29T00:33:21;98728.91;;;11.17;91.64
71239;BME280;61342;51.442;7.370;2022-12-29T00:34:40;98719.53;;;11.17;91.96
71239;BME280;61342;51.442;7.370;2022-12-29T00:36:00;98722.59;;;11.19;91.75
71239;BME280;61342;51.442;7.370;2022-12-29T00:37:01;98725.69;;;11.21;91.74
71239;BME280;61342;51.442;7.370;2022-12-29T00:38:05;98722.59;;;11.19;91.58
71239;BME280;61342;51.442;7.370;2022-12-29T00:39:25;98722.81;;;11.21;91.78
71239;BME280;61342;51.442;7.370;2022-12-29T00:40:44;98734.31;;;11.21;91.58
71239;BME280;61342;51.442;7.370;2022-12-29T00:42:08;98737.19;;;11.21;91.76
71239;BME280;61342;51.442;7.370;2022-12-29T00:43:27;98736.59;;;11.22;91.88
71239;BME280;61342;51.442;7.370;2022-12-29T00:44:46;98739.47;;;11.22;92.27
71239;BME280;61342;51.442;7.370;2022-12-29T00:45:46;98725.09;;;11.22;92.14
71239;BME280;61342;51.442;7.370;2022-12-29T00:46:46;98724.34;;;11.22;92.25
71239;BME280;61342;51.442;7.370;2022-12-29T00:47:47;98720.13;;;11.23;92.08
71239;BME280;61342;51.442;7.370;2022-12-29T00:48:47;98721.47;;;11.22;92.18
71239;BME280;61342;51.442;7.370;2022-12-29T00:50:06;98714.56;;;11.25;92.56
71239;BME280;61342;51.442;7.370;2022-12-29T00:51:07;98701.53;;;11.24;91.99
71239;BME280;61342;51.442;7.370;2022-12-29T00:52:10;98716.88;;;11.26;92.25
71239;BME280;61342;51.442;7.370;2022-12-29T00:53:10;98714.97;;;11.29;92.39
71239;BME280;61342;51.442;7.370;2022-12-29T00:54:11;98725.13;;;11.30;92.41
71239;BME280;61342;51.442;7.370;2022-12-29T00:55:12;98715.53;;;11.27;92.33
71239;BME280;61342;51.442;7.370;2022-12-29T00:56:12;98718.03;;;11.31;92.42
71239;BME280;61342;51.442;7.370;2022-12-29T00:57:12;98706.16;;;11.27;92.45
71239;BME280;61342;51.442;7.370;2022-12-29T00:58:13;98708.84;;;11.32;92.62
71239;BME280;61342;51.442;7.370;2022-12-29T00:59:13;98713.81;;;11.32;92.31
71239;BME280;61342;51.442;7.370;2022-12-29T01:00:13;98709.81;;;11.35;92.71
71239;BME280;61342;51.442;7.370;2022-12-29T01:01:14;98705.56;;;11.36;92.47
71239;BME280;61342;51.442;7.370;2022-12-29T01:02:14;98698.09;;;11.33;92.44
71239;BME280;61342;51.442;7.370;2022-12-29T01:03:14;98705.38;;;11.34;92.61
71239;BME280;61342;51.442;7.370;2022-12-29T01:04:15;98700.03;;;11.38;92.53
71239;BME280;61342;51.442;7.370;2022-12-29T01:05:15;98705.00;;;11.30;92.78
71239;BME280;61342;51.442;7.370;2022-12-29T01:06:15;98702.69;;;11.36;92.66
71239;BME280;61342;51.442;7.370;2022-12-29T01:07:16;98703.06;;;11.40;92.69
71239;BME280;61342;51.442;7.370;2022-12-29T01:08:16;98707.31;;;11.39;92.57
71239;BME280;61342;51.442;7.370;2022-12-29T01:09:17;98708.06;;;11.39;92.62
71239;BME280;61342;51.442;7.370;2022-12-29T01:10:37;98704.44;;;11.39;92.75
71239;BME280;61342;51.442;7.370;2022-12-29T01:11:38;98708.66;;;11.38;92.09
71239;BME280;61342;51.442;7.370;2022-12-29T01:12:39;98718.81;;;11.39;92.92
71239;BME280;61342;51.442;7.370;2022-12-29T01:13:43;98712.28;;;11.38;92.86
71239;BME280;61342;51.442;7.370;2022-12-29T01:14:44;98710.38;;;11.41;92.79
71239;BME280;61342;51.442;7.370;2022-12-29T01:15:52;98702.09;;;11.37;92.76
71239;BME280;61342;51.442;7.370;2022-12-29T01:16:53;98709.78;;;11.42;92.72
71239;BME280;61342;51.442;7.370;2022-12-29T01:17:54;98703.06;;;11.40;92.96
71239;BME280;61342;51.442;7.370;2022-12-29T01:18:54;98715.56;;;11.42;92.77
71239;BME280;61342;51.442;7.370;2022-12-29T01:19:55;98704.63;;;11.41;93.02
71239;BME280;61342;51.442;7.370;2022-12-29T01:21:02;98703.28;;;11.42;93.00
71239;BME280;61342;51.442;7.370;2022-12-29T01:22:03;98701.56;;;11.39;92.82
71239;BME280;61342;51.442;7.370;2022-12-29T01:23:03;98711.13;;;11.41;92.68
71239;BME280;61342;51.442;7.370;2022-12-29T01:24:04;98698.88;;;11.41;93.10
71239;BME280;61342;51.442;7.370;2022-12-29T01:25:05;98699.63;;;11.41;93.37
71239;BME280;61342;51.442;7.370;2022-12-29T01:26:10;98692.34;;;11.40;93.06
71239;BME280;61342;51.442;7.370;2022-12-29T01:27:11;98696.19;;;11.43;92.98
71239;BME280;61342;51.442;7.370;2022-12-29T01:28:11;98692.53;;;11.42;93.11
71239;BME280;61342;51.442;7.370;2022-12-29T01:29:12;98690.44;;;11.43;93.36
71239;BME280;61342;51.442;7.370;2022-12-29T01:30:13;98691.19;;;11.43;93.12
71239;BME280;61342;51.442;7.370;2022-12-29T01:31:15;98688.13;;;11.41;93.18
71239;BME280;61342;51.442;7.370;2022-12-29T01:32:15;98700.59;;;11.44;93.46
71239;BME280;61342;51.442;7.370;2022-12-29T01:33:16;98687.56;;;11.43;93.18
71239;BME280;61342;51.442;7.370;2022-12-29T01:34:17;98693.72;;;11.47;93.40
71239;BME280;61342;51.442;7.370;2022-12-29T01:35:17;98700.78;;;11.46;93.56
71239;BME280;61342;51.442;7.370;2022-12-29T01:36:18;98700.22;;;11.47;93.18
71239;BME280;61342;51.442;7.370;2022-12-29T01:37:18;98683.91;;;11.42;93.41
71239;BME280;61342;51.442;7.370;2022-12-29T01:38:19;98692.34;;;11.48;93.32
71239;BME280;61342;51.442;7.370;2022-12-29T01:39:19;98695.22;;;11.48;92.88
71239;BME280;61342;51.442;7.370;2022-12-29T01:40:19;98699.63;;;11.48;93.44
71239;BME280;61342;51.442;7.370;2022-12-29T01:41:20;98700.47;;;11.49;93.29
71239;BME280;61342;51.442;7.370;2022-12-29T01:42:23;98693.88;;;11.48;92.91
71239;BME280;61342;51.442;7.370;2022-12-29T01:43:45;98692.16;;;11.46;92.85
71239;BME280;61342;51.442;7.370;2022-12-29T01:45:10;98698.09;;;11.48;93.15
71239;BME280;61342;51.442;7.370;2022-12-29T01:46:39;98690.25;;;11.48;92.93
71239;BME280;61342;51.442;7.370;2022-12-29T01:47:49;98692.59;;;11.50;92.86
71239;BME280;61342;51.442;7.370;2022-12-29T01:48:54;98687.94;;;11.47;92.89
71239;BME280;61342;51.442;7.370;2022-12-29T01:49:57;98690.66;;;11.52;92.98
71239;BME280;61342;51.442;7.370;2022-12-29T01:50:59;98689.88;;;11.51;92.91
71239;BME280;61342;51.442;7.370;2022-12-29T01:52:03;98687.22;;;11.53;92.79
71239;BME280;61342;51.442;7.370;2022-12-29T01:53:09;98683.56;;;11.53;93.24
71239;BME280;61342;51.442;7.370;2022-12-29T01:54:15;98688.94;;;11.56;92.98
71239;BME280;61342;51.442;7.370;2022-12-29T01:55:17;98683.97;;;11.57;92.78
71239;BME280;61342;51.442;7.370;2022-12-29T01:56:19;98679.94;;;11.60;92.73
71239;BME280;61342;51.442;7.370;2022-12-29T01:57:26;98676.66;;;11.56;92.53
71239;BME280;61342;51.442;7.370;2022-12-29T01:58:32;98686.25;;;11.58;92.25
71239;BME280;61342;51.442;7.370;2022-12-29T01:59:40;98683.38;;;11.58;92.69
71239;BME280;61342;51.442;7.370;2022-12-29T02:00:43;98689.31;;;11.60;92.32
71239;BME280;61342;51.442;7.370;2022-12-29T02:01:44;98667.84;;;11.61;92.53
71239;BME280;61342;51.442;7.370;2022-12-29T02:02:48;98683.75;;;11.62;92.36
71239;BME280;61342;51.442;7.370;2022-12-29T02:03:50;98686.44;;;11.60;92.32
71239;BME280;61342;51.442;7.370;2022-12-29T02:04:52;98680.31;;;11.64;92.25
71239;BME280;61342;51.442;7.370;2022-12-29T02:06:02;98667.84;;;11.61;92.65
71239;BME280;61342;51.442;7.370;2022-12-29T02:07:08;98677.44;;;11.64;92.18
71239;BME280;61342;51.442;7.370;2022-12-29T02:08:12;98683.19;;;11.64;92.37
71239;BME280;61342;51.442;7.370;2022-12-29T02:09:13;98682.44;;;11.63;92.12
71239;BME280;61342;51.442;7.370;2022-12-29T02:10:14;98673.22;;;11.65;92.69
71239;BME280;61342;51.442;7.370;2022-12-29T02:11:15;98669.19;;;11.68;92.39
71239;BME280;61342;51.442;7.370;2022-12-29T02:12:17;98673.03;;;11.70;92.42
71239;BME280;61342;51.442;7.370;2022-12-29T02:13:19;98667.06;;;11.68;92.25
71239;BME280;61342;51.442;7.370;2022-12-29T02:14:19;98662.84;;;11.69;91.78
71239;BME280;61342;51.442;7.370;2022-12-29T02:15:29;98662.84;;;11.69;91.85
71239;BME280;61342;51.442;7.370;2022-12-29T02:16:59;98674.34;;;11.69;91.77
71239;BME280;61342;51.442;7.370;2022-12-29T02:18:07;98678.19;;;11.72;91.60
71239;BME280;61342;51.442;7.370;2022-12-29T02:26:27;98664.38;;;11.70;91.26
71239;BME280;61342;51.442;7.370;2022-12-29T02:28:53;98659.75;;;11.75;91.22
71239;BME280;61342;51.442;7.370;2022-12-29T02:31:23;98647.50;;;11.74;90.81
71239;BME280;61342;51.442;7.370;2022-12-29T02:32:52;98642.31;;;11.73;90.73
71239;BME280;61342;51.442;7.370;2022-12-29T02:34:04;98653.25;;;11.74;90.92
71239;BME280;61342;51.442;7.370;2022-12-29T02:36:23;98667.81;;;11.76;90.71
71239;BME280;61342;51.442;7.370;2022-12-29T02:37:41;98649.03;;;11.75;90.86
71239;BME280;61342;51.442;7.370;2022-12-29T02:38:53;98644.78;;;11.76;90.17
71239;BME280;61342;51.442;7.370;2022-12-29T02:40:06;98652.66;;;11.76;90.62
71239;BME280;61342;51.442;7.370;2022-12-29T02:41:45;98641.34;;;11.78;90.59
71239;BME280;61342;51.442;7.370;2022-12-29T02:43:08;98657.09;;;11.77;90.51
71239;BME280;61342;51.442;7.370;2022-12-29T02:44:27;98665.16;;;11.78;90.28
71239;BME280;61342;51.442;7.370;2022-12-29T02:45:38;98653.81;;;11.80;90.09
71239;BME280;61342;51.442;7.370;2022-12-29T02:50:39;98647.28;;;11.80;90.05
71239;BME280;61342;51.442;7.370;2022-12-29T02:51:44;98635.41;;;11.83;89.80
71239;BME280;61342;51.442;7.370;2022-12-29T02:52:56;98642.50;;;11.82;89.64
71239;BME280;61342;51.442;7.370;2022-12-29T02:53:58;98634.44;;;11.81;89.33
71239;BME280;61342;51.442;7.370;2022-12-29T02:55:18;98636.16;;;11.84;89.25
71239;BME280;61342;51.442;7.370;2022-12-29T02:56:18;98627.13;;;11.87;89.16
71239;BME280;61342;51.442;7.370;2022-12-29T02:58:22;98620.41;;;11.85;89.23
71239;BME280;61342;51.442;7.370;2022-12-29T02:59:23;98625.59;;;11.86;88.79
71239;BME280;61342;51.442;7.370;2022-12-29T03:00:24;98630.19;;;11.89;88.50
71239;BME280;61342;51.442;7.370;2022-12-29T03:01:40;98635.38;;;11.91;88.42
71239;BME280;61342;51.442;7.370;2022-12-29T03:04:58;98626.94;;;11.93;88.33
71239;BME280;61342;51.442;7.370;2022-12-29T03:06:21;98626.34;;;11.94;88.46
71239;BME280;61342;51.442;7.370;2022-12-29T03:11:05;98638.44;;;11.93;87.87
71239;BME280;61342;51.442;7.370;2022-12-29T03:12:30;98640.16;;;11.96;87.69
71239;BME280;61342;51.442;7.370;2022-12-29T03:13:52;98636.69;;;11.97;87.34
71239;BME280;61342;51.442;7.370;2022-12-29T03:15:43;98643.63;;;11.94;87.18
71239;BME280;61342;51.442;7.370;2022-12-29T03:17:08;98642.47;;;11.97;86.96
71239;BME280;61342;51.442;7.370;2022-12-29T03:18:19;98639.78;;;11.99;86.74
71239;BME280;61342;51.442;7.370;2022-12-29T03:19:35;98627.31;;;11.97;86.87
71239;BME280;61342;51.442;7.370;2022-12-29T03:20:46;98630.94;;;11.97;86.89
71239;BME280;61342;51.442;7.370;2022-12-29T03:21:50;98638.63;;;12.02;86.56
71239;BME280;61342;51.442;7.370;2022-12-29T03:23:13;98627.84;;;12.03;86.53
71239;BME280;61342;51.442;7.370;2022-12-29T03:24:15;98627.28;;;12.04;86.22
71239;BME280;61342;51.442;7.370;2022-12-29T03:25:37;98629.78;;;12.00;86.21
71239;BME280;61342;51.442;7.370;2022-12-29T03:26:40;98619.22;;;12.03;86.08
71239;BME280;61342;51.442;7.370;2022-12-29T03:27:48;98637.44;;;12.05;86.35
71239;BME280;61342;51.442;7.370;2022-12-29T03:28:53;98620.16;;;12.05;86.19
71239;BME280;61342;51.442;7.370;2022-12-29T03:29:57;98615.59;;;12.02;85.94
71239;BME280;61342;51.442;7.370;2022-12-29T03:30:59;98625.19;;;12.05;85.96
71239;BME280;61342;51.442;7.370;2022-12-29T03:32:01;98621.72;;;12.06;86.32
71239;BME280;61342;51.442;7.370;2022-12-29T03:33:10;98625.94;;;12.05;85.64
71239;BME280;61342;51.442;7.370;2022-12-29T03:34:13;98609.81;;;12.02;85.94
71239;BME280;61342;51.442;7.370;2022-12-29T03:35:17;98618.09;;;12.06;85.76
71239;BME280;61342;51.442;7.370;2022-12-29T03:36:35;98612.69;;;12.02;85.83
71239;BME280;61342;51.442;7.370;2022-12-29T03:37:41;98618.63;;;12.04;85.86
71239;BME280;61342;51.442;7.370;2022-12-29T03:39:02;98617.50;;;12.00;85.96
71239;BME280;61342;51.442;7.370;2022-12-29T03:40:06;98612.69;;;12.02;86.04
71239;BME280;61342;51.442;7.370;2022-12-29T03:41:10;98609.06;;;12.02;86.02
71239;BME280;61342;51.442;7.370;2022-12-29T03:42:14;98615.38;;;12.00;85.84
71239;BME280;61342;51.442;7.370;2022-12-29T03:43:16;98609.06;;;12.02;86.08
71239;BME280;61342;51.442;7.370;2022-12-29T03:44:17;98598.69;;;11.99;85.42
71239;BME280;61342;51.442;7.370;2022-12-29T03:45:18;98602.75;;;11.88;85.94
71239;BME280;61342;51.442;7.370;2022-12-29T03:46:18;98609.44;;;11.98;85.74
71239;BME280;61342;51.442;7.370;2022-12-29T03:47:19;98617.50;;;12.00;85.66
71239;BME280;61342;51.442;7.370;2022-12-29T03:48:19;98613.50;;;11.95;85.74
71239;BME280;61342;51.442;7.370;2022-12-29T03:49:19;98612.13;;;11.96;85.86
71239;BME280;61342;51.442;7.370;2022-12-29T03:50:20;98609.44;;;11.98;85.90
71239;BME280;61342;51.442;7.370;2022-12-29T03:51:20;98599.28;;;11.97;86.03
71239;BME280;61342;51.442;7.370;2022-12-29T03:52:20;98619.44;;;11.97;85.86
71239;BME280;61342;51.442;7.370;2022-12-29T03:53:21;98607.72;;;11.95;85.99
71239;BME280;61342;51.442;7.370;2022-12-29T03:54:22;98612.13;;;11.96;85.98
71239;BME280;61342;51.442;7.370;2022-12-29T03:55:22;98610.25;;;11.91;85.86
71239;BME280;61342;51.442;7.370;2022-12-29T03:56:22;98597.94;;;11.91;86.22
71239;BME280;61342;51.442;7.370;2022-12-29T03:57:23;98603.13;;;11.92;86.19
71239;BME280;61342;51.442;7.370;2022-12-29T03:58:23;98610.81;;;11.90;86.31
71239;BME280;61342;51.442;7.370;2022-12-29T03:59:23;98598.53;;;11.89;86.22
71239;BME280;61342;51.442;7.370;2022-12-29T04:00:24;98599.88;;;11.88;86.38
71239;BME280;61342;51.442;7.370;2022-12-29T04:01:24;98611.97;;;11.87;86.50
71239;BME280;61342;51.442;7.370;2022-12-29T04:02:24;98600.84;;;11.83;86.52
71239;BME280;61342;51.442;7.370;2022-12-29T04:03:25;98583.22;;;11.79;86.49
71239;BME280;61342;51.442;7.370;2022-12-29T04:04:25;98590.84;;;11.84;86.76
71239;BME280;61342;51.442;7.370;2022-12-29T04:05:25;98592.00;;;11.81;86.94
71239;BME280;61342;51.442;7.370;2022-12-29T04:06:26;98605.81;;;11.83;86.74
71239;BME280;61342;51.442;7.370;2022-12-29T04:07:26;98599.91;;;11.81;86.95
71239;BME280;61342;51.442;7.370;2022-12-29T04:08:27;98593.34;;;11.80;87.22
71239;BME280;61342;51.442;7.370;2022-12-29T04:09:27;98592.22;;;11.76;87.48
71239;BME280;61342;51.442;7.370;2022-12-29T04:10:27;98596.06;;;11.78;87.26
71239;BME280;61342;51.442;7.370;2022-12-29T04:11:28;98596.06;;;11.78;87.45
71239;BME280;61342;51.442;7.370;2022-12-29T04:12:28;98590.88;;;11.77;87.98
71239;BME280;61342;51.442;7.370;2022-12-29T04:13:28;98588.75;;;11.77;87.68
71239;BME280;61342;51.442;7.370;2022-12-29T04:14:29;98587.22;;;11.76;88.02
71239;BME280;61342;51.442;7.370;2022-12-29T04:15:29;98579.94;;;11.75;87.62
71239;BME280;61342;51.442;7.370;2022-12-29T04:16:30;98580.50;;;11.74;87.89
71239;BME280;61342;51.442;7.370;2022-12-29T04:17:30;98588.22;;;11.71;88.00
71239;BME280;61342;51.442;7.370;2022-12-29T04:18:30;98585.50;;;11.73;88.03
71239;BME280;61342;51.442;7.370;2022-12-29T04:19:30;98579.94;;;11.75;88.30
71239;BME280;61342;51.442;7.370;2022-12-29T04:20:31;98586.84;;;11.72;88.13
71239;BME280;61342;51.442;7.370;2022-12-29T04:21:50;98573.81;;;11.71;88.29
71239;BME280;61342;51.442;7.370;2022-12-29T04:23:00;98585.34;;;11.71;87.99
71239;BME280;61342;51.442;7.370;2022-12-29T04:24:00;98577.44;;;11.72;88.02
71239;BME280;61342;51.442;7.370;2022-12-29T04:25:01;98571.13;;;11.73;88.06
71239;BME280;61342;51.442;7.370;2022-12-29T04:26:02;98578.03;;;11.70;87.95
71239;BME280;61342;51.442;7.370;2022-12-29T04:27:02;98575.53;;;11.74;88.03
71239;BME280;61342;51.442;7.370;2022-12-29T04:28:03;98558.06;;;11.72;88.02
71239;BME280;61342;51.442;7.370;2022-12-29T04:29:03;98559.00;;;11.75;88.19
71239;BME280;61342;51.442;7.370;2022-12-29T04:30:04;98561.13;;;11.74;88.13
71239;BME280;61342;51.442;7.370;2022-12-29T04:31:05;98551.91;;;11.76;87.93
71239;BME280;61342;51.442;7.370;2022-12-29T04:32:05;98546.53;;;11.72;88.01
71239;BME280;61342;51.442;7.370;2022-12-29T04:33:06;98560.56;;;11.76;88.48
71239;BME280;61342;51.442;7.370;2022-12-29T04:34:06;98554.97;;;11.78;88.00
71239;BME280;61342;51.442;7.370;2022-12-29T04:35:07;98538.47;;;11.78;88.21
71239;BME280;61342;51.442;7.370;2022-12-29T04:36:07;98542.91;;;11.79;88.01
71239;BME280;61342;51.442;7.370;2022-12-29T04:37:08;98536.19;;;11.77;88.09
71239;BME280;61342;51.442;7.370;2022-12-29T04:38:08;98543.84;;;11.82;88.13
71239;BME280;61342;51.442;7.370;2022-12-29T04:39:09;98533.84;;;11.83;87.84
71239;BME280;61342;51.442;7.370;2022-12-29T04:40:10;98545.38;;;11.83;87.72
71239;BME280;61342;51.442;7.370;2022-12-29T04:41:10;98556.88;;;11.83;87.90
71239;BME280;61342;51.442;7.370;2022-12-29T04:42:10;98540.19;;;11.81;87.67
71239;BME280;61342;51.442;7.370;2022-12-29T04:43:11;98547.66;;;11.84;87.74
71239;BME280;61342;51.442;7.370;2022-12-29T04:44:12;98541.72;;;11.82;87.70
71239;BME280;61342;51.442;7.370;2022-12-29T04:45:12;98540.41;;;11.83;87.49
71239;BME280;61342;51.442;7.370;2022-12-29T04:46:13;98547.88;;;11.86;87.62
71239;BME280;61342;51.442;7.370;2022-12-29T04:47:13;98552.28;;;11.87;87.51
71239;BME280;61342;51.442;7.370;2022-12-29T04:48:14;98556.66;;;11.88;87.38
71239;BME280;61342;51.442;7.370;2022-12-29T04:49:14;98561.09;;;11.89;87.51
71239;BME280;61342;51.442;7.370;2022-12-29T04:50:15;98564.94;;;11.92;87.39
71239;BME280;61342;51.442;7.370;2022-12-29T04:51:15;98560.50;;;11.91;87.45
71239;BME280;61342;51.442;7.370;2022-12-29T04:52:16;98559.16;;;11.92;87.25
71239;BME280;61342;51.442;7.370;2022-12-29T04:53:17;98576.66;;;11.94;87.28
71239;BME280;61342;51.442;7.370;2022-12-29T04:54:17;98566.25;;;11.91;86.97
71239;BME280;61342;51.442;7.370;2022-12-29T04:55:18;98558.00;;;11.95;86.76
71239;BME280;61342;51.442;7.370;2022-12-29T04:56:18;98566.63;;;11.95;87.07
71239;BME280;61342;51.442;7.370;2022-12-29T04:57:19;98560.72;;;11.93;86.85
71239;BME280;61342;51.442;7.370;2022-12-29T04:58:20;98568.75;;;11.94;87.04
71239;BME280;61342;51.442;7.370;2022-12-29T04:59:20;98566.84;;;11.97;86.96
71239;BME280;61342;51.442;7.370;2022-12-29T05:00:21;98565.28;;;11.96;86.90
71239;BME280;61342;51.442;7.370;2022-12-29T05:01:22;98556.06;;;11.97;86.93
71239;BME280;61342;51.442;7.370;2022-12-29T05:02:22;98562.78;;;12.00;86.87
71239;BME280;61342;51.442;7.370;2022-12-29T05:03:22;98570.31;;;11.95;86.56
71239;BME280;61342;51.442;7.370;2022-12-29T05:04:23;98584.06;;;12.04;86.08
71239;BME280;61342;51.442;7.370;2022-12-29T05:05:23;98582.56;;;12.03;86.25
71239;BME280;61342;51.442;7.370;2022-12-29T05:06:24;98577.75;;;12.06;86.35
71239;BME280;61342;51.442;7.370;2022-12-29T05:07:24;98558.75;;;12.03;86.10
71239;BME280;61342;51.442;7.370;2022-12-29T05:08:25;98578.72;;;12.08;85.73
71239;BME280;61342;51.442;7.370;2022-12-29T05:09:25;98587.34;;;12.08;86.06
71239;BME280;61342;51.442;7.370;2022-12-29T05:10:26;98579.47;;;12.08;85.98
71239;BME280;61342;51.442;7.370;2022-12-29T05:11:26;98574.47;;;12.09;85.98
71239;BME280;61342;51.442;7.370;2022-12-29T05:12:30;98576.75;;;12.10;85.78
71239;BME280;61342;51.442;7.370;2022-12-29T05:13:30;98566.19;;;12.13;85.78
71239;BME280;61342;51.442;7.370;2022-12-29T05:14:31;98565.44;;;12.12;85.45
71239;BME280;61342;51.442;7.370;2022-12-29T05:15:31;98559.09;;;12.14;85.60
71239;BME280;61342;51.442;7.370;2022-12-29T05:16:31;98576.00;;;12.10;85.61
71239;BME280;61342;51.442;7.370;2022-12-29T05:17:32;98570.63;;;12.14;85.09
71239;BME280;61342;51.442;7.370;2022-12-29T05:18:32;98569.66;;;12.11;85.09
71239;BME280;61342;51.442;7.370;2022-12-29T05:19:33;98563.72;;;12.09;84.79
71239;BME280;61342;51.442;7.370;2022-12-29T05:20:33;98560.25;;;12.11;85.10
71239;BME280;61342;51.442;7.370;2022-12-29T05:21:33;98565.22;;;12.18;84.72
71239;BME280;61342;51.442;7.370;2022-12-29T05:22:34;98564.69;;;12.12;84.62
71239;BME280;61342;51.442;7.370;2022-12-29T05:23:34;98570.41;;;12.19;84.72
71239;BME280;61342;51.442;7.370;2022-12-29T05:24:34;98566.16;;;12.20;84.11
71239;BME280;61342;51.442;7.370;2022-12-29T05:25:35;98554.06;;;12.22;84.20
71239;BME280;61342;51.442;7.370;2022-12-29T05:26:35;98564.84;;;12.21;83.90
71239;BME280;61342;51.442;7.370;2022-12-29T05:27:36;98567.50;;;12.27;83.99
71239;BME280;61342;51.442;7.370;2022-12-29T05:28:36;98582.66;;;12.27;83.64
71239;BME280;61342;51.442;7.370;2022-12-29T05:29:37;98566.31;;;12.30;83.32
71239;BME280;61342;51.442;7.370;2022-12-29T05:30:37;98560.19;;;12.26;83.23
71239;BME280;61342;51.442;7.370;2022-12-29T05:31:37;98572.09;;;12.30;83.04
71239;BME280;61342;51.442;7.370;2022-12-29T05:32:38;98570.16;;;12.32;82.97
71239;BME280;61342;51.442;7.370;2022-12-29T05:33:38;98566.69;;;12.34;82.83
71239;BME280;61342;51.442;7.370;2022-12-29T05:34:39;98583.38;;;12.35;82.68
71239;BME280;61342;51.442;7.370;2022-12-29T05:35:39;98566.28;;;12.37;82.62
71239;BME280;61342;51.442;7.370;2022-12-29T05:36:39;98557.69;;;12.30;82.35
71239;BME280;61342;51.442;7.370;2022-12-29T05:37:40;98569.34;;;12.39;82.15
71239;BME280;61342;51.442;7.370;2022-12-29T05:38:40;98572.44;;;12.34;82.02
71239;BME280;61342;51.442;7.370;2022-12-29T05:39:40;98572.06;;;12.37;82.10
71239;BME280;61342;51.442;7.370;2022-12-29T05:40:41;98571.09;;;12.42;82.11
71239;BME280;61342;51.442;7.370;2022-12-29T05:41:41;98570.13;;;12.40;81.87
71239;BME280;61342;51.442;7.370;2022-12-29T05:42:41;98573.53;;;12.46;81.92
71239;BME280;61342;51.442;7.370;2022-12-29T05:43:41;98584.91;;;12.44;81.41
71239;BME280;61342;51.442;7.370;2022-12-29T05:44:42;98579.31;;;12.46;81.70
71239;BME280;61342;51.442;7.370;2022-12-29T05:45:42;98575.84;;;12.47;81.78
71239;BME280;61342;51.442;7.370;2022-12-29T05:46:42;98586.63;;;12.47;81.15
71239;BME280;61342;51.442;7.370;2022-12-29T05:47:43;98612.56;;;12.47;81.12
71239;BME280;61342;51.442;7.370;2022-12-29T05:48:43;98596.97;;;12.50;80.98
71239;BME280;61342;51.442;7.370;2022-12-29T05:49:43;98578.16;;;12.49;80.70
71239;BME280;61342;51.442;7.370;2022-12-29T05:50:50;98584.69;;;12.49;80.92
71239;BME280;61342;51.442;7.370;2022-12-29T05:51:51;98589.28;;;12.52;80.56
71239;BME280;61342;51.442;7.370;2022-12-29T05:52:51;98590.63;;;12.51;80.37
71239;BME280;61342;51.442;7.370;2022-12-29T05:53:51;98590.81;;;12.53;80.46
71239;BME280;61342;51.442;7.370;2022-12-29T05:54:52;98601.75;;;12.55;80.26
71239;BME280;61342;51.442;7.370;2022-12-29T05:55:52;98587.53;;;12.57;80.15
71239;BME280;61342;51.442;7.370;2022-12-29T05:56:53;98578.53;;;12.53;79.89
71239;BME280;61342;51.442;7.370;2022-12-29T05:57:53;98578.88;;;12.57;80.15
71239;BME280;61342;51.442;7.370;2022-12-29T05:58:53;98570.41;;;12.59;80.19
71239;BME280;61342;51.442;7.370;2022-12-29T05:59:54;98558.13;;;12.58;79.71
71239;BME280;61342;51.442;7.370;2022-12-29T06:00:54;98567.34;;;12.57;79.91
71239;BME280;61342;51.442;7.370;2022-12-29T06:01:54;98563.09;;;12.58;79.64
71239;BME280;61342;51.442;7.370;2022-12-29T06:02:55;98573.50;;;12.61;79.73
71239;BME280;61342;51.442;7.370;2022-12-29T06:03:55;98568.72;;;12.56;79.39